createdAt,value
2019-04-25T00:02:16.625Z,53.83
2019-04-25T00:04:45.645Z,53.78
2019-04-25T00:07:14.864Z,53.73
2019-04-25T00:09:45.546Z,54.03
2019-04-25T00:12:14.687Z,53.65
2019-04-25T00:14:43.777Z,53.66
2019-04-25T00:17:12.862Z,53.73
2019-04-25T00:19:42.531Z,53.61
2019-04-25T00:22:22.865Z,53.64
2019-04-25T00:24:53.358Z,53.58
2019-04-25T00:27:23.745Z,53.67
2019-04-25T00:29:52.967Z,53.50
2019-04-25T00:32:22.329Z,53.34
2019-04-25T00:34:51.846Z,53.41
2019-04-25T00:37:22.568Z,53.38
2019-04-25T00:39:51.856Z,53.47
2019-04-25T00:42:21.206Z,53.34
2019-04-25T00:44:51.539Z,53.42
2019-04-25T00:47:21.650Z,53.42
2019-04-25T00:49:52.107Z,53.44
2019-04-25T00:52:22.803Z,53.53
2019-04-25T00:54:52.691Z,53.63
2019-04-25T00:57:22.605Z,53.61
2019-04-25T00:59:54.093Z,53.76
2019-04-25T01:02:33.025Z,53.67
2019-04-25T01:05:02.094Z,53.92
2019-04-25T01:07:32.395Z,54.04
2019-04-25T01:10:02.437Z,54.22
2019-04-25T01:12:32.245Z,54.37
2019-04-25T01:15:01.713Z,54.33
2019-04-25T01:17:31.460Z,54.51
2019-04-25T01:20:00.602Z,54.66
2019-04-25T01:22:29.646Z,54.61
2019-04-25T01:24:58.691Z,54.71
2019-04-25T01:27:27.829Z,54.62
2019-04-25T01:29:57.066Z,54.73
2019-04-25T01:32:33.602Z,54.66
2019-04-25T01:35:23.779Z,54.82
2019-04-25T01:37:55.279Z,54.86
2019-04-25T01:40:33.410Z,55.05
2019-04-25T01:43:14.270Z,54.83
2019-04-25T01:45:44.178Z,54.88
2019-04-25T01:48:13.735Z,54.92
2019-04-25T01:50:43.764Z,54.68
2019-04-25T01:53:14.479Z,54.84
2019-04-25T01:55:53.304Z,54.81
2019-04-25T01:58:14.647Z,54.96
2019-04-25T02:00:45.205Z,54.87
2019-04-25T02:03:14.174Z,54.93
2019-04-25T02:05:43.846Z,54.95
2019-04-25T02:08:14.317Z,55.10
2019-04-25T02:10:44.885Z,55.31
2019-04-25T02:13:24.546Z,55.45
2019-04-25T02:15:54.871Z,55.46
2019-04-25T02:18:24.066Z,55.64
2019-04-25T02:20:56.580Z,55.99
2019-04-25T02:23:24.055Z,56.20
2019-04-25T02:26:06.739Z,56.34
2019-04-25T02:28:24.103Z,56.24
2019-04-25T02:30:57.316Z,56.66
2019-04-25T02:33:24.323Z,56.68
2019-04-25T02:35:54.346Z,56.97
2019-04-25T02:38:24.447Z,56.93
2019-04-25T02:40:56.289Z,57.23
2019-04-25T02:43:24.466Z,57.36
2019-04-25T02:46:02.212Z,57.17
2019-04-25T02:48:51.546Z,57.38
2019-04-25T02:51:24.359Z,57.48
2019-04-25T02:53:55.911Z,57.76
2019-04-25T02:56:31.191Z,57.62
2019-04-25T02:58:56.616Z,57.73
2019-04-25T03:01:26.397Z,57.90
2019-04-25T03:03:57.461Z,57.79
2019-04-25T03:06:26.626Z,57.95
2019-04-25T03:08:57.819Z,57.92
2019-04-25T03:11:26.525Z,57.90
2019-04-25T03:13:55.702Z,58.01
2019-04-25T03:16:25.229Z,57.96
2019-04-25T03:18:55.856Z,58.23
2019-04-25T03:21:29.505Z,58.01
2019-04-25T03:23:59.555Z,58.24
2019-04-25T03:26:39.732Z,58.27
2019-04-25T03:28:59.945Z,58.45
2019-04-25T03:31:28.850Z,58.67
2019-04-25T03:33:57.888Z,58.61
2019-04-25T03:36:26.827Z,58.66
2019-04-25T03:38:55.704Z,58.47
2019-04-25T03:41:24.680Z,58.48
2019-04-25T03:43:54.185Z,58.70
2019-04-25T03:46:23.442Z,58.98
2019-04-25T03:48:53.874Z,58.88
2019-04-25T03:51:24.016Z,58.75
2019-04-25T03:53:53.633Z,58.71
2019-04-25T03:56:22.724Z,58.75
2019-04-25T03:58:51.804Z,58.83
2019-04-25T04:01:20.807Z,58.72
2019-04-25T04:03:49.685Z,58.92
2019-04-25T04:06:18.685Z,59.09
2019-04-25T04:08:47.605Z,58.76
2019-04-25T04:11:16.485Z,58.69
2019-04-25T04:13:45.425Z,58.59
2019-04-25T04:16:15.965Z,58.47
2019-04-25T04:18:46.725Z,58.79
2019-04-25T04:21:20.102Z,58.84
2019-04-25T04:23:54.193Z,58.48
2019-04-25T04:26:24.325Z,58.52
2019-04-25T04:28:53.404Z,58.58
2019-04-25T04:31:23.562Z,58.20
2019-04-25T04:33:53.244Z,58.12
2019-04-25T04:36:23.702Z,58.23
2019-04-25T04:38:54.352Z,57.87
2019-04-25T04:41:23.955Z,58.06
2019-04-25T04:43:54.140Z,57.99
2019-04-25T04:46:24.035Z,57.87
2019-04-25T04:48:54.104Z,58.06
2019-04-25T04:51:23.945Z,57.76
2019-04-25T04:53:53.730Z,57.59
2019-04-25T04:56:23.964Z,57.95
2019-04-25T04:58:53.923Z,57.53
2019-04-25T05:01:24.863Z,57.75
2019-04-25T05:03:58.205Z,57.44
2019-04-25T05:06:31.907Z,57.16
2019-04-25T05:09:03.350Z,57.25
2019-04-25T05:11:33.526Z,57.37
2019-04-25T05:14:04.007Z,57.13
2019-04-25T05:16:33.244Z,57.26
2019-04-25T05:19:03.697Z,57.02
2019-04-25T05:21:33.694Z,56.71
2019-04-25T05:24:04.109Z,56.83
2019-04-25T05:26:34.125Z,56.64
2019-04-25T05:29:03.624Z,56.71
2019-04-25T05:31:46.308Z,56.68
2019-04-25T05:34:16.875Z,56.75
2019-04-25T05:36:46.006Z,56.59
2019-04-25T05:39:16.715Z,56.35
2019-04-25T05:41:54.010Z,55.81
2019-04-25T05:44:26.388Z,55.92
2019-04-25T05:46:54.115Z,55.75
2019-04-25T05:49:24.331Z,55.76
2019-04-25T05:51:53.943Z,55.95
2019-04-25T05:54:24.775Z,55.98
2019-04-25T05:56:54.488Z,55.94
2019-04-25T05:59:25.531Z,55.68
2019-04-25T06:01:54.166Z,55.80
2019-04-25T06:04:24.632Z,55.68
2019-04-25T06:06:55.174Z,55.61
2019-04-25T06:09:26.407Z,55.78
2019-04-25T06:11:57.425Z,56.27
2019-04-25T06:14:26.367Z,55.48
2019-04-25T06:16:56.972Z,55.34
2019-04-25T06:19:39.345Z,55.86
2019-04-25T06:22:10.114Z,55.21
2019-04-25T06:24:40.626Z,54.74
2019-04-25T06:27:17.146Z,54.49
2019-04-25T06:29:57.611Z,54.60
2019-04-25T06:32:18.305Z,54.32
2019-04-25T06:34:47.275Z,54.35
2019-04-25T06:37:16.289Z,54.68
2019-04-25T06:39:45.245Z,54.60
2019-04-25T06:42:14.266Z,54.48
2019-04-25T06:44:47.894Z,54.54
2019-04-25T06:47:24.793Z,54.02
2019-04-25T06:49:54.737Z,54.51
2019-04-25T06:52:28.234Z,54.00
2019-04-25T06:54:55.029Z,53.09
2019-04-25T06:57:26.644Z,51.93
2019-04-25T06:59:54.621Z,52.29
2019-04-25T07:02:25.409Z,52.36
2019-04-25T07:04:54.146Z,53.45
2019-04-25T07:07:24.498Z,52.07
2019-04-25T07:09:53.720Z,50.67
2019-04-25T07:12:26.574Z,50.59
2019-04-25T07:14:53.905Z,50.64
2019-04-25T07:17:24.203Z,49.28
2019-04-25T07:19:54.133Z,49.92
2019-04-25T07:22:23.976Z,49.45
2019-04-25T07:24:54.040Z,48.68
2019-04-25T07:27:40.928Z,47.93
2019-04-25T07:30:40.099Z,49.62
2019-04-25T07:33:05.432Z,50.06
2019-04-25T07:35:34.685Z,49.72
2019-04-25T07:38:04.632Z,47.90
2019-04-25T07:40:34.759Z,47.61
2019-04-25T07:43:04.862Z,49.35
2019-04-25T07:45:36.156Z,46.56
2019-04-25T07:48:05.412Z,46.95
2019-04-25T07:50:35.407Z,46.43
2019-04-25T07:53:05.717Z,47.30
2019-04-25T07:55:36.353Z,45.73
2019-04-25T07:58:05.974Z,45.47
2019-04-25T08:00:36.333Z,45.20
2019-04-25T08:03:05.553Z,44.95
2019-04-25T08:05:35.685Z,44.54
2019-04-25T08:08:05.391Z,44.48
2019-04-25T08:10:38.097Z,43.59
2019-04-25T08:13:07.152Z,43.44
2019-04-25T08:15:53.863Z,44.14
2019-04-25T08:18:25.246Z,43.86
2019-04-25T08:20:53.757Z,44.15
2019-04-25T08:23:23.852Z,43.89
2019-04-25T08:25:54.384Z,42.82
2019-04-25T08:28:23.752Z,42.04
2019-04-25T08:30:54.861Z,41.87
2019-04-25T08:33:23.796Z,42.61
2019-04-25T08:36:04.273Z,41.27
2019-04-25T08:38:23.888Z,41.93
2019-04-25T08:40:54.326Z,42.11
2019-04-25T08:43:24.356Z,41.63
2019-04-25T08:45:54.424Z,40.80
2019-04-25T08:48:25.071Z,40.01
2019-04-25T08:50:58.731Z,41.06
2019-04-25T08:53:29.171Z,40.56
2019-04-25T08:56:05.518Z,42.88
2019-04-25T08:58:36.556Z,39.23
2019-04-25T09:01:17.252Z,39.51
2019-04-25T09:03:56.832Z,39.34
2019-04-25T09:06:25.894Z,38.47
2019-04-25T09:08:54.852Z,40.19
2019-04-25T09:11:24.495Z,39.11
2019-04-25T09:13:53.848Z,37.74
2019-04-25T09:16:23.923Z,37.06
2019-04-25T09:18:53.975Z,37.31
2019-04-25T09:21:23.793Z,36.17
2019-04-25T09:23:53.533Z,35.60
2019-04-25T09:26:24.124Z,35.85
2019-04-25T09:28:53.719Z,35.17
2019-04-25T09:31:23.638Z,34.61
2019-04-25T09:33:54.290Z,34.09
2019-04-25T09:36:24.087Z,35.27
2019-04-25T09:38:54.693Z,36.82
2019-04-25T09:41:23.760Z,37.30
2019-04-25T09:43:54.947Z,37.63
2019-04-25T09:46:25.662Z,39.12
2019-04-25T09:48:58.941Z,39.21
2019-04-25T09:51:33.608Z,38.00
2019-04-25T09:54:20.561Z,37.75
2019-04-25T09:56:51.053Z,35.57
2019-04-25T09:59:28.083Z,34.12
2019-04-25T10:01:52.401Z,34.60
2019-04-25T10:04:22.973Z,35.80
2019-04-25T10:06:53.492Z,35.92
2019-04-25T10:09:23.811Z,37.54
2019-04-25T10:11:54.616Z,36.58
2019-04-25T10:14:26.691Z,36.06
2019-04-25T10:16:55.773Z,37.09
2019-04-25T10:19:24.661Z,37.47
2019-04-25T10:21:55.236Z,38.23
2019-04-25T10:24:24.312Z,37.56
2019-04-25T10:26:54.710Z,38.21
2019-04-25T10:29:23.871Z,36.16
2019-04-25T10:31:55.459Z,36.06
2019-04-25T10:34:24.184Z,36.37
2019-04-25T10:36:53.342Z,37.13
2019-04-25T10:39:22.879Z,36.04
2019-04-25T10:41:51.881Z,35.45
2019-04-25T10:44:20.941Z,34.45
2019-04-25T10:46:49.972Z,34.13
2019-04-25T10:49:19.001Z,33.39
2019-04-25T10:51:48.048Z,33.42
2019-04-25T10:54:17.143Z,32.43
2019-04-25T10:56:47.137Z,32.79
2019-04-25T10:59:16.701Z,32.01
2019-04-25T11:01:46.365Z,32.19
2019-04-25T11:04:17.692Z,31.75
2019-04-25T11:06:47.182Z,31.72
2019-04-25T11:09:20.872Z,31.03
2019-04-25T11:11:50.403Z,31.81
2019-04-25T11:14:19.564Z,31.99
2019-04-25T11:16:48.792Z,33.27
2019-04-25T11:19:17.700Z,33.92
2019-04-25T11:21:47.564Z,33.13
2019-04-25T11:24:16.655Z,32.99
2019-04-25T11:26:49.928Z,32.32
2019-04-25T11:29:17.992Z,32.07
2019-04-25T11:31:48.962Z,32.26
2019-04-25T11:34:18.350Z,30.55
2019-04-25T11:36:48.422Z,30.36
2019-04-25T11:39:28.310Z,31.47
2019-04-25T11:41:57.470Z,30.91
2019-04-25T11:44:26.423Z,30.28
2019-04-25T11:46:55.702Z,31.79
2019-04-25T11:49:24.608Z,31.29
2019-04-25T11:51:54.474Z,29.79
2019-04-25T11:54:24.265Z,29.29
2019-04-25T11:56:54.743Z,29.36
2019-04-25T11:59:24.350Z,28.83
2019-04-25T12:01:54.801Z,28.67
2019-04-25T12:04:24.034Z,30.72
2019-04-25T12:06:53.231Z,29.40
2019-04-25T12:09:24.099Z,29.88
2019-04-25T12:11:54.454Z,30.11
2019-04-25T12:14:25.196Z,30.75
2019-04-25T12:16:56.099Z,28.46
2019-04-25T12:19:34.487Z,28.50
2019-04-25T12:21:56.724Z,27.79
2019-04-25T12:24:26.351Z,26.94
2019-04-25T12:26:56.022Z,27.61
2019-04-25T12:29:24.999Z,28.68
2019-04-25T12:31:54.904Z,28.62
2019-04-25T12:34:24.329Z,28.45
2019-04-25T12:36:54.468Z,27.48
2019-04-25T12:39:24.300Z,27.54
2019-04-25T12:41:54.470Z,26.05
2019-04-25T12:44:43.452Z,25.64
2019-04-25T12:47:14.146Z,26.20
2019-04-25T12:49:43.776Z,26.94
2019-04-25T12:52:13.069Z,28.55
2019-04-25T12:54:42.031Z,27.86
2019-04-25T12:57:14.180Z,26.55
2019-04-25T12:59:45.013Z,25.14
2019-04-25T13:02:14.222Z,26.41
2019-04-25T13:04:44.284Z,27.37
2019-04-25T13:07:13.772Z,26.63
2019-04-25T13:09:42.833Z,26.46
2019-04-25T13:12:14.618Z,26.96
2019-04-25T13:14:42.581Z,27.09
2019-04-25T13:17:11.590Z,26.53
2019-04-25T13:19:40.952Z,27.86
2019-04-25T13:22:10.006Z,26.71
2019-04-25T13:24:39.052Z,26.14
2019-04-25T13:27:25.020Z,24.93
2019-04-25T13:30:07.943Z,23.74
2019-04-25T13:32:53.580Z,24.12
2019-04-25T13:35:26.701Z,24.53
2019-04-25T13:37:55.701Z,24.92
2019-04-25T13:40:24.822Z,26.26
2019-04-25T13:42:53.863Z,25.78
2019-04-25T13:45:23.582Z,26.69
2019-04-25T13:47:52.782Z,27.03
2019-04-25T13:50:23.946Z,26.29
2019-04-25T13:52:53.395Z,27.24
2019-04-25T13:55:23.987Z,26.66
2019-04-25T13:57:54.800Z,26.89
2019-04-25T14:00:25.137Z,26.68
2019-04-25T14:02:55.306Z,27.12
2019-04-25T14:05:25.700Z,27.79
2019-04-25T14:07:55.101Z,25.81
2019-04-25T14:10:25.213Z,26.64
2019-04-25T14:12:54.902Z,26.12
2019-04-25T14:15:25.371Z,26.36
2019-04-25T14:18:04.982Z,26.84
2019-04-25T14:20:44.901Z,26.84
2019-04-25T14:23:15.092Z,26.96
2019-04-25T14:25:44.334Z,25.30
2019-04-25T14:28:14.142Z,26.30
2019-04-25T14:30:43.588Z,26.44
2019-04-25T14:33:13.589Z,26.88
2019-04-25T14:35:42.703Z,27.57
2019-04-25T14:38:11.574Z,26.84
2019-04-25T14:40:42.261Z,27.47
2019-04-25T14:43:11.185Z,27.98
2019-04-25T14:45:44.328Z,28.49
2019-04-25T14:48:10.821Z,29.32
2019-04-25T14:50:39.743Z,27.77
2019-04-25T14:53:08.630Z,27.33
2019-04-25T14:55:55.462Z,27.17
2019-04-25T14:58:26.186Z,26.73
2019-04-25T15:00:55.431Z,27.89
2019-04-25T15:03:24.461Z,27.32
2019-04-25T15:05:53.582Z,27.56
2019-04-25T15:08:22.662Z,27.80
2019-04-25T15:10:51.741Z,28.55
2019-04-25T15:13:21.029Z,29.32
2019-04-25T15:15:49.915Z,28.43
2019-04-25T15:18:18.950Z,27.87
2019-04-25T15:20:47.950Z,27.61
2019-04-25T15:23:17.036Z,27.78
2019-04-25T15:25:45.981Z,28.22
2019-04-25T15:28:15.104Z,28.18
2019-04-25T15:30:44.180Z,28.15
2019-04-25T15:33:13.263Z,28.83
2019-04-25T15:35:55.790Z,29.00
2019-04-25T15:38:41.061Z,29.62
2019-04-25T15:41:20.787Z,29.40
2019-04-25T15:44:06.502Z,28.59
2019-04-25T15:46:37.181Z,28.58
2019-04-25T15:49:06.543Z,28.26
2019-04-25T15:51:35.662Z,28.42
2019-04-25T15:54:05.232Z,29.30
2019-04-25T15:56:34.676Z,28.24
2019-04-25T15:59:03.910Z,28.32
2019-04-25T16:01:33.021Z,27.89
2019-04-25T16:04:01.993Z,27.79
2019-04-25T16:06:31.923Z,28.18
2019-04-25T16:09:01.020Z,29.09
2019-04-25T16:11:30.207Z,29.14
2019-04-25T16:13:59.190Z,29.83
2019-04-25T16:16:28.334Z,29.64
2019-04-25T16:18:57.461Z,29.57
2019-04-25T16:21:26.762Z,29.74
2019-04-25T16:23:56.901Z,29.90
2019-04-25T16:26:26.976Z,30.06
2019-04-25T16:28:56.942Z,30.02
2019-04-25T16:31:28.953Z,30.17
2019-04-25T16:33:57.502Z,31.22
2019-04-25T16:36:26.582Z,30.97
2019-04-25T16:38:55.582Z,31.48
2019-04-25T16:41:24.782Z,31.33
2019-04-25T16:44:01.023Z,31.80
2019-04-25T16:46:30.735Z,32.27
2019-04-25T16:48:59.740Z,32.01
2019-04-25T16:51:29.293Z,32.37
2019-04-25T16:53:58.383Z,32.69
2019-04-25T16:56:28.268Z,32.17
2019-04-25T16:58:57.920Z,32.28
2019-04-25T17:01:27.226Z,32.38
2019-04-25T17:03:56.590Z,33.21
2019-04-25T17:06:25.862Z,33.33
2019-04-25T17:08:54.942Z,33.40
2019-04-25T17:11:23.983Z,34.46
2019-04-25T17:14:10.866Z,33.81
2019-04-25T17:16:50.583Z,34.17
2019-04-25T17:19:37.342Z,34.54
2019-04-25T17:22:06.541Z,34.17
2019-04-25T17:24:35.421Z,34.03
2019-04-25T17:27:04.860Z,34.59
2019-04-25T17:29:34.628Z,34.77
2019-04-25T17:32:05.384Z,34.68
2019-04-25T17:34:36.625Z,34.46
2019-04-25T17:37:10.145Z,34.65
2019-04-25T17:39:40.799Z,34.77
2019-04-25T17:42:09.942Z,34.98
2019-04-25T17:44:39.032Z,34.89
2019-04-25T17:47:07.992Z,35.73
2019-04-25T17:49:36.993Z,36.29
2019-04-25T17:52:06.141Z,35.93
2019-04-25T17:54:35.229Z,35.59
2019-04-25T17:57:04.594Z,35.90
2019-04-25T17:59:34.716Z,35.63
2019-04-25T18:02:04.285Z,36.04
2019-04-25T18:04:34.166Z,35.97
2019-04-25T18:07:03.631Z,36.31
2019-04-25T18:09:32.741Z,36.50
2019-04-25T18:12:01.830Z,36.85
2019-04-25T18:14:30.821Z,37.02
2019-04-25T18:16:59.902Z,36.92
2019-04-25T18:19:34.029Z,37.26
2019-04-25T18:22:11.499Z,37.34
2019-04-25T18:24:57.269Z,37.32
2019-04-25T18:27:27.901Z,37.48
2019-04-25T18:29:56.951Z,37.63
2019-04-25T18:32:27.506Z,38.08
2019-04-25T18:35:10.422Z,38.01
2019-04-25T18:37:52.663Z,38.16
2019-04-25T18:40:29.381Z,38.45
2019-04-25T18:43:14.942Z,38.69
2019-04-25T18:45:46.481Z,38.51
2019-04-25T18:48:15.640Z,38.62
2019-04-25T18:50:45.462Z,39.04
2019-04-25T18:53:19.261Z,39.12
2019-04-25T18:55:56.061Z,39.00
2019-04-25T18:58:29.544Z,39.19
2019-04-25T19:01:00.342Z,38.98
2019-04-25T19:03:39.701Z,39.25
2019-04-25T19:06:10.358Z,39.36
2019-04-25T19:08:39.679Z,39.35
2019-04-25T19:11:08.872Z,39.48
2019-04-25T19:13:38.800Z,39.30
2019-04-25T19:16:08.741Z,39.34
2019-04-25T19:18:38.814Z,39.20
2019-04-25T19:21:10.143Z,39.16
2019-04-25T19:23:39.391Z,39.23
2019-04-25T19:26:09.621Z,39.42
2019-04-25T19:28:39.977Z,39.45
2019-04-25T19:31:09.461Z,39.72
2019-04-25T19:33:48.349Z,39.72
2019-04-25T19:36:29.365Z,39.97
2019-04-25T19:39:11.549Z,39.92
2019-04-25T19:41:43.792Z,40.01
2019-04-25T19:44:15.478Z,39.94
2019-04-25T19:46:47.929Z,39.96
2019-04-25T19:49:29.866Z,40.11
2019-04-25T19:52:06.813Z,39.90
2019-04-25T19:54:40.899Z,40.08
2019-04-25T19:57:19.108Z,39.82
2019-04-25T19:59:57.864Z,39.99
2019-04-25T20:02:38.880Z,39.77
2019-04-25T20:05:24.078Z,39.92
2019-04-25T20:07:55.369Z,39.98
2019-04-25T20:10:29.776Z,39.74
2019-04-25T20:12:59.925Z,39.55
2019-04-25T20:15:29.777Z,39.60
2019-04-25T20:17:59.181Z,39.78
2019-04-25T20:20:28.077Z,39.88
2019-04-25T20:22:56.956Z,40.23
2019-04-25T20:25:25.839Z,40.24
2019-04-25T20:27:55.390Z,40.63
2019-04-25T20:30:24.477Z,40.46
2019-04-25T20:32:53.599Z,40.44
2019-04-25T20:35:22.587Z,40.58
2019-04-25T20:37:51.470Z,40.79
2019-04-25T20:40:20.541Z,40.64
2019-04-25T20:42:49.876Z,40.79
2019-04-25T20:45:19.208Z,41.38
2019-04-25T20:47:48.309Z,41.66
2019-04-25T20:50:17.400Z,41.17
2019-04-25T20:52:47.316Z,41.14
2019-04-25T20:55:16.511Z,41.53
2019-04-25T20:57:45.421Z,41.63
2019-04-25T21:00:18.221Z,41.50
2019-04-25T21:02:48.326Z,41.54
2019-04-25T21:05:17.391Z,41.63
2019-04-25T21:07:46.351Z,41.43
2019-04-25T21:10:15.261Z,41.80
2019-04-25T21:12:44.268Z,41.14
2019-04-25T21:15:26.510Z,40.76
2019-04-25T21:18:06.100Z,40.96
2019-04-25T21:20:35.100Z,41.28
2019-04-25T21:23:04.070Z,41.84
2019-04-25T21:25:33.112Z,41.86
2019-04-25T21:28:02.061Z,42.04
2019-04-25T21:30:31.182Z,42.04
2019-04-25T21:33:00.235Z,42.12
2019-04-25T21:35:29.423Z,42.13
2019-04-25T21:37:59.561Z,42.35
2019-04-25T21:40:39.499Z,42.52
2019-04-25T21:43:13.501Z,42.78
2019-04-25T21:45:42.830Z,43.12
2019-04-25T21:48:12.182Z,43.25
2019-04-25T21:50:41.421Z,43.39
2019-04-25T21:53:10.670Z,43.64
2019-04-25T21:55:39.790Z,43.87
2019-04-25T21:58:09.182Z,44.10
2019-04-25T22:00:52.503Z,44.30
2019-04-25T22:03:24.382Z,44.64
2019-04-25T22:05:54.166Z,44.54
2019-04-25T22:08:24.230Z,44.75
2019-04-25T22:10:53.668Z,45.00
2019-04-25T22:13:22.621Z,45.13
2019-04-25T22:15:51.902Z,45.51
2019-04-25T22:18:21.260Z,45.46
2019-04-25T22:20:50.358Z,45.66
2019-04-25T22:23:19.717Z,45.59
2019-04-25T22:25:49.030Z,45.64
2019-04-25T22:28:18.462Z,45.72
2019-04-25T22:30:49.261Z,45.93
2019-04-25T22:33:19.951Z,45.75
2019-04-25T22:35:53.621Z,45.73
2019-04-25T22:38:22.125Z,45.75
2019-04-25T22:40:51.061Z,45.87
2019-04-25T22:43:21.301Z,45.96
2019-04-25T22:45:50.621Z,46.15
2019-04-25T22:48:21.180Z,46.07
2019-04-25T22:50:50.422Z,46.17
2019-04-25T22:53:22.877Z,46.28
2019-04-25T22:55:50.101Z,46.26
2019-04-25T22:58:19.180Z,46.39
2019-04-25T23:00:48.300Z,46.19
2019-04-25T23:03:18.903Z,46.28
2019-04-25T23:05:49.505Z,46.20
2019-04-25T23:08:18.744Z,46.36
2019-04-25T23:10:47.822Z,46.48
2019-04-25T23:13:16.865Z,46.39
2019-04-25T23:15:45.821Z,46.39
2019-04-25T23:18:14.983Z,46.36
2019-04-25T23:20:43.940Z,46.18
2019-04-25T23:23:13.797Z,46.17
2019-04-25T23:26:00.878Z,46.08
2019-04-25T23:28:31.903Z,46.03
2019-04-25T23:31:20.180Z,45.83
2019-04-25T23:33:49.302Z,45.88
2019-04-25T23:36:18.663Z,45.80
2019-04-25T23:38:47.824Z,45.84
2019-04-25T23:41:17.101Z,45.96
2019-04-25T23:43:46.261Z,45.92
2019-04-25T23:46:16.281Z,45.90
2019-04-25T23:48:45.221Z,45.91
2019-04-25T23:51:14.359Z,45.88
2019-04-25T23:53:44.381Z,45.54
2019-04-25T23:56:13.384Z,45.36
2019-04-25T23:58:42.581Z,45.38
